Boluda Garbi — EFTQ — position and weather

sailwx.info

Track history (hours):
 
Tides and Currents Weather Stations Pressure Air Temp Water Temp Dewpoint Dewpoint Depression Visibility Wind Speed Wind Dir Waves Ship Positions

Boluda Garbi

Last reported at 2018-Jul-24 11:33 UTC. Time now 2018-Aug-14 23:44 UTC.
Position N 28°29' W 016°15'.
Warning: this ship's position is 21 days out of date.

Length 26 m; draft 4 m.

Type: Tug. MMSI: 224187980.

Date/timePositionNaut miles runAvg speedWind from/ knotsBaromVisibWave heightAir tempDewpointWater temp
2018-Jul-24 11:33N 28°29' W 016°15'0 0.0
2018-Jul-24 11:31N 28°29' W 016°15'4 7.1
2018-Jul-24 11:00N 28°27' W 016°11'510.1
2018-Jul-24 10:30N 28°24' W 016°06'10 9.3
2018-Jul-24 09:26N 28°19' W 015°56'5 9.8
2018-Jul-24 08:59N 28°18' W 015°52'510.2
2018-Jul-24 08:30N 28°17' W 015°46'510.0
2018-Jul-24 08:00N 28°16' W 015°41'5 9.9
2018-Jul-24 07:27N 28°14' W 015°35'4 9.8
2018-Jul-24 07:01N 28°13' W 015°30'5 9.6
2018-Jul-24 06:30N 28°12' W 015°25'4 7.3
2018-Jul-24 06:00N 28°09' W 015°23'1 2.4
2018-Jul-24 05:30N 28°09' W 015°25'0 0.0
2018-Jul-24 05:00N 28°09' W 015°25'0 0.0
2018-Jul-24 04:30N 28°09' W 015°25'0 0.0
2018-Jul-24 04:00N 28°09' W 015°25'0 0.0
2018-Jul-24 03:30N 28°09' W 015°25'0 0.0
2018-Jul-24 03:00N 28°09' W 015°25'0 0.0
2018-Jul-24 02:30N 28°09' W 015°25'0 0.0
2018-Jul-24 02:00N 28°09' W 015°25'0 0.0
2018-Jul-24 01:30N 28°09' W 015°25'0 0.0
2018-Jul-24 01:00N 28°09' W 015°25'0 0.0
2018-Jul-24 00:30N 28°09' W 015°25'0 0.1
2018-Jul-24 00:00N 28°09' W 015°25'1 2.4
2018-Jul-23 23:30N 28°08' W 015°24'1 1.2
2018-Jul-23 23:00N 28°08' W 015°24'1 2.4
2018-Jul-23 22:30N 28°09' W 015°23'3 6.3
2018-Jul-23 22:00N 28°12' W 015°24'3 5.9
2018-Jul-23 21:30N 28°13' W 015°27'3 6.4
2018-Jul-23 21:00N 28°13' W 015°31'6 6.4
2018-Jul-23 20:00N 28°15' W 015°38'3 6.3
2018-Jul-23 19:30N 28°16' W 015°41'3 6.5
2018-Jul-23 19:00N 28°18' W 015°45'3 6.5
2018-Jul-23 18:29N 28°19' W 015°48'5 6.5
2018-Jul-23 17:41N 28°21' W 015°54'1 6.4
2018-Jul-23 17:30N 28°21' W 015°55'7 6.3
2018-Jul-23 16:19N 28°24' W 016°03'2 6.2
2018-Jul-23 16:00N 28°25' W 016°05'3 6.4
2018-Jul-23 15:30N 28°26' W 016°08'3 6.4
2018-Jul-23 15:00N 28°26' W 016°12'3 5.2
2018-Jul-23 14:30N 28°27' W 016°15'1 1.1
2018-Jul-23 13:59N 28°28' W 016°15'0 0.0
2018-Jul-23 13:30N 28°28' W 016°15'0 0.0
2018-Jul-23 13:00N 28°28' W 016°15'0 0.0
2018-Jul-23 12:30N 28°28' W 016°15'0 0.0
2018-Jul-23 12:00N 28°28' W 016°15'0 0.0
2018-Jul-23 11:30N 28°28' W 016°15'1 1.9
2018-Jul-23 11:00N 28°29' W 016°15'  
Track history (hours):
 
Tides and Currents Weather Stations Pressure Air Temp Water Temp Dewpoint Dewpoint Depression Visibility Wind Speed Wind Dir Waves Ship Positions

Boluda Garbi

Last reported at 2018-Jul-24 11:33 UTC. Time now 2018-Aug-14 23:44 UTC.
Position N 28°29' W 016°15'.
Warning: this ship's position is 21 days out of date.

Length 26 m; draft 4 m.

Type: Tug. MMSI: 224187980.

Date/timePositionNaut miles runAvg speedWind from/ knotsBaromVisibWave heightAir tempDewpointWater temp
2018-Jul-24 11:33N 28°29' W 016°15'0 0.0
2018-Jul-24 11:31N 28°29' W 016°15'4 7.1
2018-Jul-24 11:00N 28°27' W 016°11'510.1
2018-Jul-24 10:30N 28°24' W 016°06'10 9.3
2018-Jul-24 09:26N 28°19' W 015°56'5 9.8
2018-Jul-24 08:59N 28°18' W 015°52'510.2
2018-Jul-24 08:30N 28°17' W 015°46'510.0
2018-Jul-24 08:00N 28°16' W 015°41'5 9.9
2018-Jul-24 07:27N 28°14' W 015°35'4 9.8
2018-Jul-24 07:01N 28°13' W 015°30'5 9.6
2018-Jul-24 06:30N 28°12' W 015°25'4 7.3
2018-Jul-24 06:00N 28°09' W 015°23'1 2.4
2018-Jul-24 05:30N 28°09' W 015°25'0 0.0
2018-Jul-24 05:00N 28°09' W 015°25'0 0.0
2018-Jul-24 04:30N 28°09' W 015°25'0 0.0
2018-Jul-24 04:00N 28°09' W 015°25'0 0.0
2018-Jul-24 03:30N 28°09' W 015°25'0 0.0
2018-Jul-24 03:00N 28°09' W 015°25'0 0.0
2018-Jul-24 02:30N 28°09' W 015°25'0 0.0
2018-Jul-24 02:00N 28°09' W 015°25'0 0.0
2018-Jul-24 01:30N 28°09' W 015°25'0 0.0
2018-Jul-24 01:00N 28°09' W 015°25'0 0.0
2018-Jul-24 00:30N 28°09' W 015°25'0 0.1
2018-Jul-24 00:00N 28°09' W 015°25'1 2.4
2018-Jul-23 23:30N 28°08' W 015°24'1 1.2
2018-Jul-23 23:00N 28°08' W 015°24'1 2.4
2018-Jul-23 22:30N 28°09' W 015°23'3 6.3
2018-Jul-23 22:00N 28°12' W 015°24'3 5.9
2018-Jul-23 21:30N 28°13' W 015°27'3 6.4
2018-Jul-23 21:00N 28°13' W 015°31'6 6.4
2018-Jul-23 20:00N 28°15' W 015°38'3 6.3
2018-Jul-23 19:30N 28°16' W 015°41'3 6.5
2018-Jul-23 19:00N 28°18' W 015°45'3 6.5
2018-Jul-23 18:29N 28°19' W 015°48'5 6.5
2018-Jul-23 17:41N 28°21' W 015°54'1 6.4
2018-Jul-23 17:30N 28°21' W 015°55'7 6.3
2018-Jul-23 16:19N 28°24' W 016°03'2 6.2
2018-Jul-23 16:00N 28°25' W 016°05'3 6.4
2018-Jul-23 15:30N 28°26' W 016°08'3 6.4
2018-Jul-23 15:00N 28°26' W 016°12'3 5.2
2018-Jul-23 14:30N 28°27' W 016°15'1 1.1
2018-Jul-23 13:59N 28°28' W 016°15'0 0.0
2018-Jul-23 13:30N 28°28' W 016°15'0 0.0
2018-Jul-23 13:00N 28°28' W 016°15'0 0.0
2018-Jul-23 12:30N 28°28' W 016°15'0 0.0
2018-Jul-23 12:00N 28°28' W 016°15'0 0.0
2018-Jul-23 11:30N 28°28' W 016°15'1 1.9
2018-Jul-23 11:00N 28°29' W 016°15'  

Dump ship's entire track history